Time;durP1;ratioP1;P1;durP2;ratioP2;P2;SDS_P1;SDS_P2;PMS_P1;PMS_P2;Temp;Humidity;BMP_temperature;BMP_pressure;BME280_temperature;BME280_humidity;BME280_pressure;Samples;Min_cycle;Max_cycle;Signal;HPM_P1;HPM_P2
2021/03/16 00:01:20;;;;;;;9.00;6.53;;;;;;;4.70;100.00;100148.94;4959104;28;20053;-49
2021/03/16 00:03:46;;;;;;;8.95;5.68;;;;;;;4.78;100.00;100155.19;4966543;28;20082;-52
2021/03/16 00:06:16;;;;;;;10.18;7.05;;;;;;;4.59;100.00;100155.28;4960653;28;20051;-50
2021/03/16 00:08:43;;;;;;;9.77;6.80;;;;;;;4.43;100.00;100158.81;4961651;28;20383;-50
2021/03/16 00:11:11;;;;;;;9.43;7.15;;;;;;;4.56;100.00;100155.13;4960990;28;20461;-50
2021/03/16 00:13:38;;;;;;;10.27;6.90;;;;;;;4.45;100.00;100163.97;4961700;28;20051;-49
2021/03/16 00:16:05;;;;;;;11.95;6.32;;;;;;;4.42;100.00;100171.44;4960819;28;20055;-48
2021/03/16 00:18:32;;;;;;;9.23;5.80;;;;;;;4.53;100.00;100172.75;4961790;28;20560;-51
2021/03/16 00:20:58;;;;;;;8.88;5.93;;;;;;;4.59;100.00;100173.88;4960751;28;20183;-47
2021/03/16 00:23:25;;;;;;;7.68;5.28;;;;;;;4.66;100.00;100171.59;4961624;28;20523;-48
2021/03/16 00:25:51;;;;;;;9.00;6.55;;;;;;;4.54;100.00;100174.50;4961810;28;20046;-47
2021/03/16 00:28:18;;;;;;;11.15;6.95;;;;;;;4.52;100.00;100176.09;4965730;28;20101;-49
2021/03/16 00:30:45;;;;;;;10.48;7.28;;;;;;;4.45;100.00;100179.19;4964999;28;20476;-51
2021/03/16 00:33:13;;;;;;;9.30;7.18;;;;;;;4.72;100.00;100187.94;4964232;28;20345;-48
2021/03/16 00:35:39;;;;;;;8.48;6.50;;;;;;;4.65;100.00;100183.41;4964921;28;20047;-49
2021/03/16 00:38:06;;;;;;;7.38;6.55;;;;;;;4.50;100.00;100191.25;4964859;28;20050;-48
2021/03/16 00:40:33;;;;;;;11.48;6.78;;;;;;;4.20;100.00;100197.53;4965335;28;20524;-48
2021/03/16 00:42:59;;;;;;;8.65;6.60;;;;;;;4.23;100.00;100196.00;4963911;28;20058;-51
2021/03/16 00:45:26;;;;;;;8.93;6.38;;;;;;;4.36;100.00;100199.94;4964959;28;20524;-48
2021/03/16 00:47:52;;;;;;;7.50;5.65;;;;;;;4.48;100.00;100197.03;4963989;28;20049;-47
2021/03/16 00:50:19;;;;;;;6.60;5.43;;;;;;;4.36;100.00;100199.94;4964768;28;20043;-48
2021/03/16 00:52:46;;;;;;;7.38;6.10;;;;;;;4.38;100.00;100205.94;4966300;28;20054;-50
2021/03/16 00:55:24;;;;;;;9.32;6.35;;;;;;;4.46;100.00;100203.72;4958956;28;20145;-49
2021/03/16 00:57:51;;;;;;;7.93;6.00;;;;;;;4.37;100.00;100208.41;4963877;28;20043;-49
2021/03/16 01:00:18;;;;;;;10.65;7.38;;;;;;;4.25;100.00;100212.16;4964418;28;20138;-49
2021/03/16 01:02:44;;;;;;;11.77;7.65;;;;;;;4.21;100.00;100211.97;4964248;28;20069;-51
2021/03/16 01:05:12;;;;;;;10.27;7.22;;;;;;;4.30;100.00;100219.97;4963895;28;20051;-51
2021/03/16 01:07:39;;;;;;;10.73;7.80;;;;;;;4.38;100.00;100217.75;4964758;28;20074;-50
2021/03/16 01:10:10;;;;;;;12.00;7.68;;;;;;;4.14;100.00;100217.56;4963893;28;20058;-46
2021/03/16 01:12:36;;;;;;;12.18;7.55;;;;;;;4.49;100.00;100225.00;4964362;28;20043;-46
2021/03/16 01:15:03;;;;;;;10.38;7.70;;;;;;;4.47;100.00;100225.75;4963891;28;20422;-52
2021/03/16 01:17:30;;;;;;;10.30;7.75;;;;;;;4.27;100.00;100225.75;4964095;28;20410;-50
2021/03/16 01:19:56;;;;;;;11.80;8.10;;;;;;;4.23;100.00;100230.63;4963696;28;20064;-47
2021/03/16 01:22:23;;;;;;;12.95;9.13;;;;;;;4.14;100.00;100228.56;4964411;28;20065;-50
2021/03/16 01:24:49;;;;;;;12.30;8.80;;;;;;;4.32;100.00;100231.88;4963942;28;20140;-45
2021/03/16 01:27:16;;;;;;;13.98;8.80;;;;;;;4.43;100.00;100232.34;4963781;28;20055;-49
2021/03/16 01:29:42;;;;;;;13.13;9.50;;;;;;;4.44;100.00;100240.84;4964241;28;20492;-45
2021/03/16 01:32:09;;;;;;;10.18;7.57;;;;;;;4.21;100.00;100237.31;4963253;28;20497;-49
2021/03/16 01:34:36;;;;;;;12.10;8.88;;;;;;;4.05;100.00;100235.75;4964525;28;20541;-52
2021/03/16 01:37:02;;;;;;;11.40;8.60;;;;;;;4.03;100.00;100233.16;4962974;28;20509;-50
2021/03/16 01:39:29;;;;;;;11.05;8.20;;;;;;;4.08;100.00;100243.50;4963145;28;20513;-50
2021/03/16 01:41:55;;;;;;;9.98;7.97;;;;;;;4.16;100.00;100246.34;4963022;28;20051;-50
2021/03/16 01:44:22;;;;;;;11.00;8.05;;;;;;;4.12;100.00;100245.38;4964108;28;20050;-52
2021/03/16 01:46:48;;;;;;;11.82;8.65;;;;;;;4.26;100.00;100243.44;4963376;28;20105;-50
2021/03/16 01:49:15;;;;;;;10.93;7.97;;;;;;;4.31;100.00;100247.03;4963003;28;20464;-50
2021/03/16 01:51:43;;;;;;;12.55;9.13;;;;;;;4.33;100.00;100247.97;4963457;28;20046;-44
2021/03/16 01:54:09;;;;;;;12.85;8.85;;;;;;;4.20;100.00;100243.16;4962352;28;20054;-48
2021/03/16 01:56:41;;;;;;;12.05;7.78;;;;;;;4.35;100.00;100251.44;4963335;28;20042;-48
2021/03/16 01:59:07;;;;;;;13.00;9.00;;;;;;;4.27;100.00;100253.63;4962748;28;20055;-47
2021/03/16 02:01:34;;;;;;;16.83;9.07;;;;;;;4.43;100.00;100255.16;4963278;28;20303;-52
2021/03/16 02:04:01;;;;;;;13.50;9.05;;;;;;;4.09;100.00;100258.75;4962532;28;20054;-52
2021/03/16 02:07:04;;;;;;;13.02;9.40;;;;;;;4.15;100.00;100259.81;4963420;28;20054;-48
2021/03/16 02:09:52;;;;;;;13.05;9.30;;;;;;;4.01;100.00;100255.00;4957464;28;20130;-50
2021/03/16 02:12:22;;;;;;;13.70;9.85;;;;;;;4.19;100.00;100264.22;4962856;28;20150;-45
2021/03/16 02:14:59;;;;;;;16.02;9.68;;;;;;;4.34;100.00;100253.13;4962794;28;20449;-50
2021/03/16 02:17:34;;;;;;;15.15;9.65;;;;;;;4.16;100.00;100267.50;4957040;28;20050;-51
2021/03/16 02:20:15;;;;;;;14.73;9.43;;;;;;;4.28;100.00;100269.69;4962343;28;20054;-51
2021/03/16 02:22:46;;;;;;;18.27;10.68;;;;;;;4.27;100.00;100267.97;4962431;28;20315;-50
2021/03/16 02:25:49;;;;;;;13.98;9.52;;;;;;;4.27;100.00;100275.56;4962010;28;20062;-50
2021/03/16 02:28:35;;;;;;;19.42;11.02;;;;;;;4.07;100.00;100272.16;4962513;28;20046;-46
2021/03/16 02:31:03;;;;;;;16.90;10.45;;;;;;;4.22;100.00;100282.13;4961937;28;20042;-49
2021/03/16 02:33:36;;;;;;;16.15;10.70;;;;;;;4.19;100.00;100280.28;4962836;28;20047;-52
2021/03/16 02:36:04;;;;;;;15.10;10.27;;;;;;;4.09;100.00;100294.22;4961627;28;20050;-52
2021/03/16 02:38:36;;;;;;;15.55;10.27;;;;;;;3.97;100.00;100290.25;4962666;28;20055;-48
2021/03/16 02:41:06;;;;;;;14.55;9.35;;;;;;;4.18;100.00;100288.72;4961750;28;20072;-48
2021/03/16 02:43:33;;;;;;;14.23;9.55;;;;;;;3.99;100.00;100296.28;4962637;28;20500;-49
2021/03/16 02:46:04;;;;;;;12.43;8.90;;;;;;;4.05;100.00;100302.47;4961736;28;20047;-48
2021/03/16 02:48:32;;;;;;;11.10;8.27;;;;;;;4.06;100.00;100294.06;4962891;28;20057;-50
2021/03/16 02:50:59;;;;;;;13.35;8.30;;;;;;;3.95;100.00;100307.94;4962766;28;20061;-52
2021/03/16 02:53:26;;;;;;;10.55;7.43;;;;;;;3.90;100.00;100311.06;4963163;28;20058;-46
2021/03/16 02:55:54;;;;;;;12.07;7.95;;;;;;;3.87;100.00;100311.78;4961656;28;20058;-50
2021/03/16 02:58:23;;;;;;;10.63;7.00;;;;;;;4.05;100.00;100309.22;4955975;28;20043;-49
2021/03/16 03:00:51;;;;;;;10.63;6.60;;;;;;;3.88;100.00;100307.56;4961940;28;20393;-52
2021/03/16 03:03:20;;;;;;;10.00;5.70;;;;;;;3.89;100.00;100312.72;4962620;28;20057;-48
2021/03/16 03:05:50;;;;;;;9.05;5.45;;;;;;;4.25;100.00;100320.25;4962483;28;20150;-49
2021/03/16 03:08:19;;;;;;;7.47;5.13;;;;;;;3.95;100.00;100322.25;4962080;28;20053;-50
2021/03/16 03:10:46;;;;;;;6.93;5.20;;;;;;;4.07;100.00;100320.31;4946121;28;20042;-51
2021/03/16 03:13:13;;;;;;;6.70;5.03;;;;;;;3.95;100.00;100332.41;4962810;28;20054;-50
2021/03/16 03:15:39;;;;;;;5.93;4.72;;;;;;;4.00;100.00;100341.06;4971318;28;20196;-47
2021/03/16 03:18:06;;;;;;;5.60;4.97;;;;;;;3.70;100.00;100335.47;4963316;28;20051;-49
2021/03/16 03:20:34;;;;;;;6.32;4.78;;;;;;;4.01;100.00;100340.28;4962382;28;20473;-50
2021/03/16 03:23:16;;;;;;;7.18;4.70;;;;;;;4.02;100.00;100342.00;4961020;28;20050;-50
2021/03/16 03:25:51;;;;;;;9.05;5.13;;;;;;;3.90;100.00;100346.50;4967920;28;20064;-49
2021/03/16 03:28:24;;;;;;;9.13;4.57;;;;;;;4.05;100.00;100350.63;4963741;28;20413;-53
2021/03/16 03:30:52;;;;;;;5.47;4.50;;;;;;;3.81;100.00;100355.41;4961466;28;20105;-48
2021/03/16 03:33:22;;;;;;;6.25;4.47;;;;;;;3.85;100.00;100351.38;4962998;28;20507;-48
2021/03/16 03:35:49;;;;;;;8.82;4.00;;;;;;;3.82;100.00;100356.28;4961567;28;20060;-45
2021/03/16 03:38:17;;;;;;;5.72;4.30;;;;;;;3.92;100.00;100355.03;4961280;28;20567;-51
2021/03/16 03:40:46;;;;;;;6.03;4.70;;;;;;;3.89;100.00;100355.78;4961939;28;20050;-48
2021/03/16 03:43:14;;;;;;;6.35;4.80;;;;;;;3.96;100.00;100367.06;4961925;28;20043;-51
2021/03/16 03:45:42;;;;;;;5.57;4.32;;;;;;;4.01;100.00;100373.19;4961645;28;20058;-47
2021/03/16 03:48:12;;;;;;;7.25;5.28;;;;;;;4.00;100.00;100376.53;4960616;28;20145;-54
2021/03/16 03:50:40;;;;;;;5.68;4.57;;;;;;;4.03;100.00;100381.75;4961950;28;20279;-49
2021/03/16 03:53:09;;;;;;;7.32;4.68;;;;;;;4.13;99.43;100385.59;4961672;28;20049;-47
2021/03/16 03:55:37;;;;;;;7.68;4.85;;;;;;;3.62;100.00;100393.31;4963423;28;20046;-47
2021/03/16 03:58:05;;;;;;;5.97;4.50;;;;;;;3.81;100.00;100395.06;4961135;28;20809;-50
2021/03/16 04:00:32;;;;;;;6.30;4.28;;;;;;;3.77;99.17;100398.25;4962614;28;20055;-52
2021/03/16 04:03:01;;;;;;;4.78;4.13;;;;;;;3.88;100.00;100404.69;4963474;28;20103;-47
2021/03/16 04:05:28;;;;;;;7.05;4.15;;;;;;;3.86;99.42;100413.00;4965699;28;20193;-52
2021/03/16 04:07:57;;;;;;;8.32;4.30;;;;;;;3.96;99.98;100410.13;4966454;28;20050;-46
2021/03/16 04:10:24;;;;;;;5.63;3.75;;;;;;;3.70;100.00;100411.41;4970981;28;20137;-49
2021/03/16 04:12:52;;;;;;;7.00;4.78;;;;;;;3.89;99.44;100420.78;4966406;28;20058;-49
2021/03/16 04:15:19;;;;;;;6.80;4.50;;;;;;;3.79;98.94;100424.50;4972780;28;20047;-51
2021/03/16 04:17:46;;;;;;;8.85;4.28;;;;;;;3.73;98.88;100419.16;4967147;28;20061;-51
2021/03/16 04:20:15;;;;;;;6.57;4.82;;;;;;;3.61;100.00;100429.56;4965526;28;20062;-46
2021/03/16 04:22:43;;;;;;;6.20;4.03;;;;;;;3.94;98.09;100430.31;4965194;28;20055;-44
2021/03/16 04:25:10;;;;;;;8.23;4.32;;;;;;;3.75;98.34;100430.22;4964501;28;20054;-47
2021/03/16 04:27:37;;;;;;;7.93;4.07;;;;;;;3.64;98.40;100437.28;4965796;28;20094;-46
2021/03/16 04:30:08;;;;;;;5.72;3.90;;;;;;;3.64;98.22;100447.41;4964323;28;20614;-47
2021/03/16 04:32:35;;;;;;;5.32;3.30;;;;;;;3.73;97.35;100447.88;4966616;28;20062;-51
2021/03/16 04:35:02;;;;;;;5.55;3.78;;;;;;;3.75;97.86;100446.28;4965692;28;20153;-51
2021/03/16 04:37:29;;;;;;;5.43;3.20;;;;;;;3.83;97.00;100447.50;4965581;28;20063;-50
2021/03/16 04:39:56;;;;;;;7.00;3.58;;;;;;;3.68;96.57;100446.78;4965264;28;20540;-52
2021/03/16 04:42:22;;;;;;;10.43;4.07;;;;;;;3.79;96.40;100452.34;4966662;28;20480;-51
2021/03/16 04:44:49;;;;;;;10.95;3.72;;;;;;;3.70;97.82;100457.00;4965690;28;20392;-50
2021/03/16 04:47:15;;;;;;;5.60;3.17;;;;;;;3.62;97.59;100460.81;4965466;28;20062;-48
2021/03/16 04:49:42;;;;;;;4.20;2.83;;;;;;;3.63;97.21;100455.81;4966210;28;20315;-54
2021/03/16 04:52:08;;;;;;;4.18;3.22;;;;;;;3.55;96.68;100472.28;4965484;28;20625;-52
2021/03/16 04:54:35;;;;;;;5.13;3.10;;;;;;;3.48;97.37;100473.63;4966515;28;20043;-48
2021/03/16 04:57:02;;;;;;;5.25;3.38;;;;;;;3.59;98.41;100479.22;4965237;28;20061;-48
2021/03/16 04:59:28;;;;;;;4.78;3.50;;;;;;;3.53;96.80;100471.34;4965882;28;20054;-48
2021/03/16 05:01:55;;;;;;;3.88;2.90;;;;;;;3.77;96.69;100477.59;4964749;28;20042;-49
2021/03/16 05:04:22;;;;;;;7.20;3.63;;;;;;;3.67;96.51;100487.22;4959198;28;20077;-50
2021/03/16 05:06:48;;;;;;;6.85;3.92;;;;;;;3.76;96.74;100480.94;4965166;28;20050;-51
2021/03/16 05:09:15;;;;;;;4.78;3.30;;;;;;;3.71;96.50;100492.50;4965149;28;20521;-50
2021/03/16 05:11:41;;;;;;;6.72;3.83;;;;;;;3.65;96.19;100489.69;4962679;28;20172;-49
2021/03/16 05:14:08;;;;;;;8.48;4.47;;;;;;;3.49;97.01;100497.28;4963010;28;20058;-49
2021/03/16 05:16:34;;;;;;;9.02;3.67;;;;;;;3.78;95.55;100488.59;4965989;28;20057;-49
2021/03/16 05:19:01;;;;;;;7.28;3.88;;;;;;;3.63;94.18;100501.38;4965181;28;20050;-48
2021/03/16 05:21:29;;;;;;;7.22;3.65;;;;;;;3.73;95.14;100506.09;4966139;28;20428;-52
2021/03/16 05:23:56;;;;;;;6.38;4.38;;;;;;;3.82;94.62;100504.03;4964844;28;20047;-50
2021/03/16 05:26:23;;;;;;;8.30;3.95;;;;;;;3.52;96.74;100499.97;4966022;28;20038;-46
2021/03/16 05:29:02;;;;;;;6.38;4.10;;;;;;;3.66;96.10;100511.66;4965206;28;20050;-49
2021/03/16 05:31:29;;;;;;;4.32;3.50;;;;;;;3.70;95.27;100517.78;4966116;28;20496;-47
2021/03/16 05:33:55;;;;;;;6.10;3.78;;;;;;;3.87;94.09;100511.00;4964985;28;20047;-53
2021/03/16 05:36:22;;;;;;;7.97;3.72;;;;;;;3.78;94.20;100519.84;4958839;28;20062;-49
2021/03/16 05:38:49;;;;;;;8.55;4.00;;;;;;;3.81;94.22;100519.16;4965373;28;20050;-49
2021/03/16 05:41:16;;;;;;;10.07;3.65;;;;;;;3.68;95.21;100522.72;4965277;28;20043;-51
2021/03/16 05:43:44;;;;;;;6.65;3.50;;;;;;;3.54;96.03;100527.09;4965586;28;20500;-50
2021/03/16 05:46:11;;;;;;;4.30;3.45;;;;;;;3.58;96.43;100538.25;4964461;28;20043;-49
2021/03/16 05:48:40;;;;;;;8.38;3.38;;;;;;;3.74;93.98;100538.22;4998885;23;20050;-44
2021/03/16 05:51:07;;;;;;;6.75;2.90;;;;;;;3.71;93.52;100537.22;4969173;28;20202;-53
2021/03/16 05:53:34;;;;;;;6.90;3.13;;;;;;;3.45;94.03;100549.41;4967270;28;20054;-46
2021/03/16 05:56:01;;;;;;;7.43;3.00;;;;;;;3.56;94.74;100544.91;4967743;28;20428;-49
2021/03/16 05:58:29;;;;;;;7.63;3.33;;;;;;;3.43;92.44;100551.00;4966802;28;20047;-49
2021/03/16 06:00:55;;;;;;;6.82;3.30;;;;;;;3.64;92.73;100563.00;4970551;28;20047;-44
2021/03/16 06:03:22;;;;;;;5.20;2.50;;;;;;;3.73;91.48;100561.81;4969418;28;20047;-46
2021/03/16 06:05:50;;;;;;;4.57;2.60;;;;;;;3.64;91.42;100570.59;4970041;28;20141;-46
2021/03/16 06:08:16;;;;;;;4.40;3.00;;;;;;;3.66;91.27;100580.03;4971341;28;20050;-42
2021/03/16 06:10:44;;;;;;;4.65;2.65;;;;;;;3.58;93.29;100578.75;4970597;28;20804;-45
2021/03/16 06:13:16;;;;;;;6.78;3.53;;;;;;;3.61;92.04;100584.00;4972252;28;20455;-47
2021/03/16 06:15:43;;;;;;;4.60;3.08;;;;;;;3.42;92.20;100581.28;4970222;28;20053;-46
2021/03/16 06:18:27;;;;;;;4.80;2.97;;;;;;;3.39;93.75;100597.19;4981265;28;20053;-47
2021/03/16 06:21:02;;;;;;;4.47;2.83;;;;;;;3.69;90.33;100599.56;4971170;28;20539;-45
2021/03/16 06:23:39;;;;;;;5.35;2.53;;;;;;;3.69;90.81;100599.56;4970462;28;20420;-45
2021/03/16 06:26:14;;;;;;;4.10;2.13;;;;;;;3.90;87.34;100608.28;4971375;28;20122;-48
2021/03/16 06:28:52;;;;;;;5.22;1.83;;;;;;;3.85;85.84;100603.78;4969396;28;20485;-46
2021/03/16 06:31:46;;;;;;;3.42;2.13;;;;;;;3.88;85.65;100609.84;4975680;28;20491;-50
2021/03/16 06:34:28;;;;;;;4.93;2.17;;;;;;;3.49;85.68;100616.25;4971150;28;20054;-48
2021/03/16 06:37:13;;;;;;;3.65;1.75;;;;;;;3.69;87.48;100612.22;4968372;28;20137;-45
2021/03/16 06:39:49;;;;;;;4.13;2.03;;;;;;;3.83;87.23;100623.94;4967463;28;20035;-43
2021/03/16 06:42:34;;;;;;;4.70;1.98;;;;;;;3.69;85.67;100624.88;4967955;28;20488;-43
2021/03/16 06:45:07;;;;;;;5.93;2.00;;;;;;;3.63;87.22;100622.03;4969753;28;20065;-45
2021/03/16 06:47:41;;;;;;;6.63;2.50;;;;;;;3.61;86.84;100629.56;4967413;28;20073;-44
2021/03/16 06:50:11;;;;;;;4.07;2.13;;;;;;;3.70;87.52;100634.25;4969593;28;20570;-46
2021/03/16 06:52:37;;;;;;;3.65;2.70;;;;;;;3.67;87.83;100640.00;4969470;28;20039;-47
2021/03/16 06:55:11;;;;;;;4.40;2.03;;;;;;;3.77;88.03;100637.16;4971189;28;20865;-49
2021/03/16 06:57:38;;;;;;;5.30;2.63;;;;;;;3.76;90.13;100643.03;4968701;28;20061;-45
2021/03/16 07:00:10;;;;;;;9.20;2.90;;;;;;;4.06;87.42;100638.63;4970991;28;20418;-47
2021/03/16 07:02:39;;;;;;;6.50;3.90;;;;;;;3.82;87.57;100643.31;4968563;28;20125;-50
2021/03/16 07:05:07;;;;;;;6.22;4.20;;;;;;;4.08;86.83;100639.59;4970224;28;20061;-45
2021/03/16 07:07:33;;;;;;;5.45;3.40;;;;;;;3.85;88.78;100646.81;4968330;28;20057;-46
2021/03/16 07:10:02;;;;;;;7.63;4.20;;;;;;;3.75;87.85;100650.53;4970962;28;20117;-47
2021/03/16 07:12:34;;;;;;;5.50;3.22;;;;;;;3.98;88.32;100656.81;4969142;28;20050;-46
2021/03/16 07:15:02;;;;;;;6.03;3.58;;;;;;;4.26;87.57;100654.00;4971810;28;20103;-43
2021/03/16 07:17:29;;;;;;;6.57;3.75;;;;;;;4.33;87.10;100661.09;4971561;28;20054;-50
2021/03/16 07:20:04;;;;;;;7.32;3.40;;;;;;;4.04;87.02;100672.31;4970675;28;20544;-47
2021/03/16 07:22:37;;;;;;;5.65;3.28;;;;;;;4.40;85.34;100670.78;4968850;28;20051;-49
2021/03/16 07:25:06;;;;;;;4.30;2.88;;;;;;;4.08;85.43;100677.63;4970716;28;20051;-46
2021/03/16 07:27:34;;;;;;;9.15;3.65;;;;;;;3.75;87.96;100691.06;4968220;28;20060;-50
2021/03/16 07:30:01;;;;;;;6.82;3.38;;;;;;;4.10;88.87;100682.75;4970721;28;20059;-49
2021/03/16 07:32:28;;;;;;;5.65;3.72;;;;;;;3.81;90.00;100694.78;4968632;28;20061;-48
2021/03/16 07:35:00;;;;;;;5.68;3.20;;;;;;;4.07;88.07;100692.75;4970505;28;20050;-49
2021/03/16 07:37:29;;;;;;;8.43;3.33;;;;;;;3.97;88.05;100690.50;4967795;28;20213;-43
2021/03/16 07:40:01;;;;;;;4.68;2.97;;;;;;;4.03;85.59;100695.91;4970442;28;20054;-49
2021/03/16 07:42:28;;;;;;;7.78;3.65;;;;;;;3.98;88.49;100699.88;4968711;28;20145;-46
2021/03/16 07:44:56;;;;;;;4.80;3.40;;;;;;;4.25;85.30;100702.94;4970441;28;20137;-44
2021/03/16 07:47:38;;;;;;;4.75;3.40;;;;;;;4.22;85.64;100707.88;4968204;28;20050;-45
2021/03/16 07:50:09;;;;;;;5.85;3.58;;;;;;;4.13;84.29;100702.31;4970316;28;20102;-42
2021/03/16 07:52:46;;;;;;;5.93;3.47;;;;;;;4.27;85.58;100711.50;4968476;28;20057;-41
2021/03/16 07:55:27;;;;;;;8.13;3.25;;;;;;;4.39;83.79;100714.66;4975586;28;20446;-43
2021/03/16 07:58:05;;;;;;;5.90;3.70;;;;;;;4.33;86.06;100715.19;4970120;28;20471;-40
2021/03/16 08:00:49;;;;;;;6.75;3.55;;;;;;;4.29;85.38;100718.38;4968266;28;20053;-40
2021/03/16 08:03:24;;;;;;;13.93;3.45;;;;;;;4.40;86.14;100725.69;4969169;28;20456;-41
2021/03/16 08:05:51;;;;;;;3.25;2.95;;;;;;;4.53;83.32;100731.44;4969501;28;20215;-41
2021/03/16 08:08:20;;;;;;;4.63;2.75;;;;;;;4.58;83.86;100734.22;4975686;28;20043;-40
2021/03/16 08:10:47;;;;;;;5.47;3.10;;;;;;;4.62;83.89;100737.75;4968642;28;20079;-40
2021/03/16 08:13:18;;;;;;;3.35;2.75;;;;;;;4.60;81.80;100735.16;4969840;28;20049;-40
2021/03/16 08:15:50;;;;;;;6.63;2.90;;;;;;;4.75;82.59;100743.50;4968351;28;20058;-46
2021/03/16 08:18:27;;;;;;;5.95;2.90;;;;;;;4.68;82.56;100744.03;4975481;28;20055;-41
2021/03/16 08:21:06;;;;;;;5.57;2.80;;;;;;;4.71;80.18;100751.75;4970270;28;20855;-40
2021/03/16 08:23:33;;;;;;;4.20;2.10;;;;;;;4.49;80.08;100756.56;4968184;28;20047;-42
2021/03/16 08:26:00;;;;;;;5.05;2.33;;;;;;;4.54;79.08;100755.13;4970045;28;20544;-41
2021/03/16 08:28:29;;;;;;;3.38;2.15;;;;;;;4.73;77.54;100767.94;4968066;28;20047;-42
2021/03/16 08:30:58;;;;;;;5.70;2.35;;;;;;;4.65;79.71;100763.28;4974637;28;20499;-44
2021/03/16 08:33:28;;;;;;;5.80;2.53;;;;;;;4.68;78.89;100769.38;4964166;28;20576;-44
2021/03/16 08:35:57;;;;;;;6.90;3.28;;;;;;;4.61;79.51;100769.84;4969539;28;20496;-41
2021/03/16 08:38:27;;;;;;;3.30;2.42;;;;;;;4.61;81.43;100774.94;4969292;28;20423;-40
2021/03/16 08:41:04;;;;;;;4.50;3.08;;;;;;;5.05;79.84;100771.22;4974289;28;20549;-43
2021/03/16 08:43:31;;;;;;;4.57;2.85;;;;;;;5.02;80.20;100782.06;4973423;28;20058;-50
2021/03/16 08:45:58;;;;;;;6.50;3.25;;;;;;;5.22;78.48;100778.00;4974661;28;20435;-44
2021/03/16 08:48:30;;;;;;;8.20;3.05;;;;;;;5.27;79.04;100781.63;4974700;28;20207;-40
2021/03/16 08:50:59;;;;;;;4.50;2.95;;;;;;;5.51;79.89;100781.03;4979540;28;20163;-41
2021/03/16 08:53:25;;;;;;;5.53;3.03;;;;;;;5.43;78.95;100784.88;4972016;28;20056;-42
2021/03/16 08:55:53;;;;;;;5.53;3.03;;;;;;;5.77;76.17;100792.41;4977525;28;20043;-42
2021/03/16 08:58:23;;;;;;;7.55;2.80;;;;;;;5.39;78.07;100790.59;4982747;28;20051;-41
2021/03/16 09:00:50;;;;;;;7.15;2.80;;;;;;;5.36;77.56;100804.91;4972349;28;20073;-40
2021/03/16 09:03:28;;;;;;;6.75;3.35;;;;;;;5.49;77.26;100796.19;4972005;28;20421;-39
2021/03/16 09:05:55;;;;;;;4.18;2.63;;;;;;;5.54;76.99;100797.28;4977781;28;20055;-42
2021/03/16 09:08:22;;;;;;;4.35;2.42;;;;;;;5.53;77.72;100802.28;4977010;28;20053;-41
2021/03/16 09:10:49;;;;;;;7.00;2.40;;;;;;;5.55;75.25;100800.72;4971563;28;20050;-41
2021/03/16 09:13:28;;;;;;;4.25;2.25;;;;;;;5.62;75.56;100800.19;4972325;28;20065;-46
2021/03/16 09:15:55;;;;;;;4.00;2.55;;;;;;;5.60;77.38;100809.41;4972557;28;20047;-42
2021/03/16 09:18:22;;;;;;;9.88;2.75;;;;;;;5.43;75.99;100806.06;4969687;28;20085;-49
2021/03/16 09:20:49;;;;;;;6.00;2.95;;;;;;;5.46;75.43;100807.91;4975040;28;20057;-44
2021/03/16 09:23:16;;;;;;;5.43;2.60;;;;;;;5.63;76.73;100805.31;4968921;28;20042;-42
2021/03/16 09:25:45;;;;;;;7.50;2.65;;;;;;;5.75;75.04;100812.66;4971566;28;20046;-43
2021/03/16 09:28:14;;;;;;;8.82;3.78;;;;;;;5.51;76.88;100811.53;4968073;28;20050;-46
2021/03/16 09:30:55;;;;;;;6.93;3.42;;;;;;;5.74;76.45;100810.06;4980892;28;20051;-44
2021/03/16 09:33:24;;;;;;;8.73;5.03;;;;;;;5.52;77.69;100813.25;4968586;28;20051;-45
2021/03/16 09:35:55;;;;;;;8.15;5.10;;;;;;;5.66;77.39;100819.84;4970711;28;20460;-43
2021/03/16 09:38:23;;;;;;;8.55;4.65;;;;;;;5.68;77.85;100822.47;4969663;28;20057;-45
2021/03/16 09:40:49;;;;;;;16.13;7.78;;;;;;;6.01;75.50;100821.56;4973485;28;20057;-49
2021/03/16 09:43:22;;;;;;;25.02;10.30;;;;;;;5.76;76.13;100811.00;4969447;28;20055;-43
2021/03/16 09:46:00;;;;;;;12.57;5.75;;;;;;;5.79;76.77;100817.09;4969623;28;20515;-45
2021/03/16 09:48:27;;;;;;;9.57;3.88;;;;;;;5.85;78.05;100819.06;4971127;28;20156;-45
2021/03/16 09:50:57;;;;;;;7.93;4.22;;;;;;;5.63;77.03;100818.03;4973040;28;20046;-43
2021/03/16 09:53:23;;;;;;;6.90;2.72;;;;;;;5.51;75.59;100829.31;4971314;28;20043;-48
2021/03/16 09:56:02;;;;;;;4.97;3.17;;;;;;;6.07;74.85;100826.03;4971129;28;20058;-47
2021/03/16 09:58:30;;;;;;;2.70;2.30;;;;;;;6.06;75.22;100826.84;4969149;28;20130;-50
2021/03/16 10:01:03;;;;;;;4.80;2.28;;;;;;;5.92;74.88;100832.97;4972394;28;20070;-46
2021/03/16 10:03:30;;;;;;;5.65;2.33;;;;;;;5.83;76.01;100830.81;4971132;28;20133;-43
2021/03/16 10:06:06;;;;;;;3.47;2.10;;;;;;;6.38;73.30;100843.56;4979796;28;20125;-45
2021/03/16 10:08:33;;;;;;;3.15;1.83;;;;;;;7.05;70.31;100846.47;4971103;28;20450;-51
2021/03/16 10:11:08;;;;;;;2.75;2.05;;;;;;;6.88;67.91;100843.19;4973326;28;20074;-43
2021/03/16 10:13:39;;;;;;;2.78;1.63;;;;;;;6.40;70.66;100853.78;4971327;28;20054;-48
2021/03/16 10:16:13;;;;;;;5.10;1.92;;;;;;;6.99;66.27;100851.31;4972608;28;20049;-48
2021/03/16 10:18:44;;;;;;;3.13;1.80;;;;;;;7.17;68.14;100850.38;4971032;28;20053;-46
2021/03/16 10:21:15;;;;;;;4.55;1.85;;;;;;;7.42;68.61;100847.16;4977871;28;20582;-46
2021/03/16 10:23:41;;;;;;;3.75;1.73;;;;;;;7.49;65.20;100855.09;4971276;28;20054;-48
2021/03/16 10:26:11;;;;;;;2.55;1.45;;;;;;;6.96;66.15;100851.19;4972673;28;20068;-48
2021/03/16 10:28:43;;;;;;;4.88;1.55;;;;;;;6.82;67.46;100862.44;4970754;28;20452;-48
2021/03/16 10:31:20;;;;;;;3.80;1.70;;;;;;;7.01;67.62;100862.44;4972989;28;20223;-42
2021/03/16 10:33:55;;;;;;;9.38;4.82;;;;;;;7.17;65.95;100858.00;4971382;28;20039;-46
2021/03/16 10:36:22;;;;;;;7.63;5.35;;;;;;;7.22;66.64;100857.38;4970355;28;20137;-47
2021/03/16 10:38:50;;;;;;;3.75;3.45;;;;;;;7.14;67.15;100857.06;4971089;28;20133;-45
2021/03/16 10:41:21;;;;;;;3.53;1.92;;;;;;;6.92;67.22;100856.06;4971341;28;20053;-41
2021/03/16 10:43:48;;;;;;;4.85;1.98;;;;;;;6.54;68.29;100860.38;4970573;28;20054;-41
2021/03/16 10:46:15;;;;;;;4.78;1.67;;;;;;;6.66;68.59;100863.47;4977609;28;20050;-46
2021/03/16 10:48:42;;;;;;;4.57;1.77;;;;;;;6.58;68.06;100864.78;4970195;28;20056;-42
2021/03/16 10:51:09;;;;;;;3.10;1.75;;;;;;;8.04;64.41;100862.41;4973130;28;20448;-41
2021/03/16 10:53:36;;;;;;;4.00;1.58;;;;;;;9.03;60.64;100871.97;4970192;28;20059;-42
2021/03/16 10:56:03;;;;;;;2.97;1.40;;;;;;;9.43;58.83;100864.00;4972300;28;20050;-43
2021/03/16 10:58:31;;;;;;;3.28;1.48;;;;;;;10.29;56.01;100875.22;4970308;28;20130;-41
2021/03/16 11:00:58;;;;;;;4.40;1.90;;;;;;;9.49;57.67;100868.44;4972498;28;20069;-42
2021/03/16 11:03:30;;;;;;;3.90;1.70;;;;;;;9.61;56.08;100876.47;4970336;28;20054;-47
2021/03/16 11:05:57;;;;;;;3.17;1.42;;;;;;;10.57;57.22;100868.34;4971812;28;20706;-49
2021/03/16 11:08:24;;;;;;;2.92;1.33;;;;;;;10.13;57.61;100873.88;4969793;28;20145;-42
2021/03/16 11:10:51;;;;;;;4.53;1.70;;;;;;;9.83;56.30;100867.81;4970560;28;20046;-44
2021/03/16 11:13:17;;;;;;;2.55;1.52;;;;;;;9.46;58.82;100876.84;4971131;28;20050;-42
2021/03/16 11:15:46;;;;;;;4.65;1.70;;;;;;;9.93;56.94;100875.81;4970951;28;20047;-42
2021/03/16 11:18:13;;;;;;;5.30;1.30;;;;;;;10.23;55.78;100877.59;4970312;28;20045;-43
2021/03/16 11:20:39;;;;;;;4.82;2.50;;;;;;;9.18;57.14;100878.47;4970396;28;20054;-46
2021/03/16 11:23:06;;;;;;;2.13;1.55;;;;;;;9.21;58.95;100875.16;4972179;28;20421;-44
2021/03/16 11:25:32;;;;;;;3.00;1.75;;;;;;;8.86;58.09;100867.13;4969899;28;20066;-48
2021/03/16 11:27:59;;;;;;;4.07;1.90;;;;;;;9.90;56.32;100873.19;4971774;28;20051;-44
2021/03/16 11:30:29;;;;;;;2.40;1.48;;;;;;;12.05;49.67;100879.00;4969789;28;20070;-47
2021/03/16 11:32:56;;;;;;;1.98;1.45;;;;;;;12.16;48.24;100877.56;4972099;28;20055;-43
2021/03/16 11:35:23;;;;;;;2.55;1.20;;;;;;;12.15;48.37;100878.38;4969445;28;20054;-48
2021/03/16 11:37:49;;;;;;;2.78;1.92;;;;;;;12.94;48.86;100876.56;4969919;28;20042;-44
2021/03/16 11:40:16;;;;;;;2.83;1.65;;;;;;;12.31;46.80;100883.03;4970663;28;20049;-47